Flight Track Log - Related Links

Times and Time Zones

All times are in EDT time to prevent confusion due to time zone crossing. See the LYM752 flight status page for this flight to view local times or setup timezone preferences in your user account.

Time Position Orientation Groundspeed Altitude Reporting Facility
EDT Latitude Longitude Course Direction KTS MPH feet Rate Location/Type
Fri 10:18:56 AM 39.1000 -108.5167 159° South 116 133 6,100  Level Denver TRACON
Fri 10:19:50 AM 39.0667 -108.5000 159° South 120 138 7,100 1,050 Climbing Denver TRACON
Fri 10:20:56 AM 39.0500 -108.5000 180° South 128 147 8,200 1,000 Climbing Denver TRACON
Fri 10:22:08 AM 39.0717 -108.5106 339° North 110 127 9,400 1,075 Climbing Denver Center
Fri 10:23:10 AM 39.0994 -108.4861 34° Northeast 113 130 10,600 1,024 Climbing Denver Center
Fri 10:24:11 AM 39.1242 -108.4622 37° Northeast 112 129 11,500 885 Climbing Denver Center
Fri 10:25:12 AM 39.1519 -108.4383 34° Northeast 121 139 12,400 976 Climbing Denver Center
Fri 10:26:14 AM 39.1808 -108.4136 34° Northeast 124 143 13,500 976 Climbing Denver Center
Fri 10:27:15 AM 39.2089 -108.3886 35° Northeast 120 138 14,400 885 Climbing Denver Center
Fri 10:28:16 AM 39.2381 -108.3658 31° Northeast 122 140 15,300 829 Climbing Denver Center
Fri 10:29:18 AM 39.2647 -108.3364 41° Northeast 127 146 16,100 732 Climbing Denver Center
Fri 10:30:19 AM 39.2836 -108.2906 62° Northeast 139 160 16,800 443 Climbing Denver Center
Fri 10:31:20 AM 39.3044 -108.2375 63° Northeast 157 181 17,000 98 Climbing Denver Center
Fri 10:32:22 AM 39.3275 -108.1817 62° Northeast 174 200 17,000 49 Level Denver Center
Fri 10:33:23 AM 39.3542 -108.1228 60° Northeast 189 217 17,100 49 Climbing Denver Center
Fri 10:34:24 AM 39.3858 -108.0581 58° Northeast 199 229 17,100  Level Denver Center
Fri 10:35:26 AM 39.4114 -108.0003 60° Northeast 198 228 17,100  Level Denver Center
Fri 10:36:27 AM 39.4411 -107.9264 62° Northeast 207 238 17,100  Level Denver Center
Fri 10:37:29 AM 39.4681 -107.8639 61° Northeast 209 241 17,100  Level Denver Center
Fri 10:38:30 AM 39.4942 -107.8008 62° Northeast 210 242 17,100  Level Denver Center
Fri 10:39:32 AM 39.5222 -107.7264 64° Northeast 207 238 17,100  Level Denver Center
Fri 10:40:33 AM 39.5481 -107.6619 63° Northeast 209 241 17,100  Level Denver Center
Fri 10:41:35 AM 39.5783 -107.5889 62° Northeast 207 238 17,100  Level Denver Center
Fri 10:42:36 AM 39.6044 -107.5247 62° Northeast 210 242 17,100  Level Denver Center
Fri 10:43:38 AM 39.6336 -107.4506 63° Northeast 210 242 17,100  Level Denver Center
Fri 10:44:39 AM 39.6592 -107.3858 63° Northeast 210 242 17,100  Level Denver Center
Fri 10:45:41 AM 39.6836 -107.3217 64° Northeast 209 241 17,100  Level Denver Center
Fri 10:46:43 AM 39.7139 -107.2472 62° Northeast 208 239 17,100  Level Denver Center
Fri 10:47:44 AM 39.7369 -107.1850 64° Northeast 214 246 17,100 49 Level Denver Center
Fri 10:48:46 AM 39.7664 -107.1017 65° Northeast 214 246 17,200  Climbing Denver Center
Fri 10:49:48 AM 39.7911 -107.0300 66° East 213 245 17,100 -48 Descending Denver Center
Fri 10:50:50 AM 39.8167 -106.9594 65° Northeast 214 246 17,100  Level Denver Center
Fri 10:51:51 AM 39.8417 -106.8894 65° Northeast 212 244 17,100 -49 Level Denver Center
Fri 10:52:53 AM 39.8683 -106.8200 63° Northeast 213 245 17,000 -48 Descending Denver Center
Fri 10:53:55 AM 39.8950 -106.7508 63° Northeast 213 245 17,000  Level Denver Center
Fri 10:54:56 AM 39.9217 -106.6819 63° Northeast 212 244 17,000 49 Level Denver Center
Fri 10:55:58 AM 39.9489 -106.6131 63° Northeast 213 245 17,100  Climbing Denver Center
Fri 10:57:00 AM 39.9739 -106.5436 65° Northeast 212 244 17,000 -48 Descending Denver Center
Fri 10:58:02 AM 39.9978 -106.4742 66° East 210 242 17,000  Level Denver Center
Fri 10:59:04 AM 40.0456 -106.4083 47° Northeast 212 244 17,000 49 Level Denver Center
Fri 11:00:05 AM 40.0911 -106.3639 37° Northeast 208 239 17,100  Climbing Denver Center
Fri 11:01:07 AM 40.1269 -106.3069 51° Northeast 212 244 17,000 -48 Descending Denver Center
Fri 11:02:09 AM 40.1400 -106.2289 78° East 219 252 17,000  Level Denver Center
Fri 11:03:11 AM 40.1628 -106.1486 70° East 213 245 17,000 48 Level Denver Center
Fri 11:04:13 AM 40.1844 -106.0797 68° East 208 239 17,100  Climbing Denver Center
Fri 11:05:15 AM 40.2075 -106.0081 67° East 210 242 17,000 -48 Descending Denver Center
Fri 11:06:17 AM 40.2281 -105.9369 69° East 210 242 17,000 48 Level Denver Center
Fri 11:07:19 AM 40.2447 -105.8625 74° East 212 244 17,100  Climbing Denver Center
Fri 11:08:21 AM 40.2642 -105.7861 72° East 218 251 17,000 -48 Descending Denver Center
Fri 11:09:23 AM 40.2875 -105.6958 71° East 219 252 17,000 48 Level Denver Center
Fri 11:10:25 AM 40.3050 -105.6219 73° East 214 246 17,100  Climbing Denver Center
Fri 11:11:27 AM 40.3261 -105.5489 69° East 215 247 17,000 -48 Descending Denver Center
Fri 11:12:29 AM 40.3475 -105.4761 69° East 213 245 17,000 -339 Level Denver Center
Fri 11:13:31 AM 40.3456 -105.3956 92° East 233 268 16,300 -677 Descending Denver Center
Fri 11:14:33 AM 40.2903 -105.3414 143° Southeast 233 268 15,600 -726 Descending Denver Center
Fri 11:15:35 AM 40.2472 -105.2742 130° Southeast 244 281 14,800 -726 Descending Denver Center
Fri 11:16:37 AM 40.2094 -105.1933 121° Southeast 242 278 14,100 -387 Descending Denver Center
Fri 11:17:39 AM 40.1733 -105.1275 126° Southeast 225 259 14,000  Descending Denver Center
Fri 11:18:41 AM 40.1372 -105.0642 127° Southeast 218 251 14,100  Climbing Denver Center
Fri 11:19:43 AM 40.0989 -104.9969 127° Southeast 216 249 14,000 -48 Descending Denver Center
Fri 11:20:45 AM 40.0636 -104.9331 126° Southeast 216 249 14,000  Level Denver Center
Fri 11:21:47 AM 40.0272 -104.8642 125° Southeast 215 247 14,000 -339 Level Denver Center
Fri 11:22:49 AM 39.9922 -104.7969 124° Southeast 221 254 13,300 -768 Descending Denver Center
Fri 11:23:52 AM 39.9533 -104.7233 125° Southeast 242 278 12,400 -912 Descending Denver Center
Fri 11:24:54 AM 39.9128 -104.6450 124° Southeast 241 277 11,400 -884 Descending Denver Center
Fri 11:25:27 AM 39.9000 -104.6000 110° East 233 268 11,000 -207 Descending Denver TRACON
Fri 11:26:21 AM 39.8667 -104.5500 131° Southeast 211 243 11,100 -66 Climbing Denver TRACON
Fri 11:26:58 AM 39.8414 -104.5125 131° Southeast 209 241 10,900 -61 Descending Denver Center
Fri 11:28:00 AM 39.7892 -104.5014 171° South 189 217 11,000 -145 Climbing Denver Center
Fri 11:29:02 AM 39.7364 -104.4919 172° South 191 220 10,600 -629 Descending Denver Center
Fri 11:30:04 AM 39.6747 -104.4878 177° South 203 234 9,700 -774 Descending Denver Center
Fri 11:31:06 AM 39.6175 -104.4981 188° South 207 238 9,000 -339 Descending Denver Center
Fri 11:32:08 AM 39.5583 -104.5075 187° South 199 229 9,000 -48 Level Denver Center
Fri 11:33:10 AM 39.5178 -104.5431 214° Southwest 180 207 8,900 -435 Descending Denver Center
Fri 11:34:12 AM 39.5069 -104.6053 257° West 181 208 8,100 -435 Descending Denver Center
Fri 11:35:14 AM 39.5397 -104.6406 320° Northwest 146 168 8,000 -48 Descending Denver Center
Fri 11:36:16 AM 39.5781 -104.6450 355° North 139 160 8,000  Level Denver Center
Fri 11:37:18 AM 39.6175 -104.6453 360° North 133 153 8,000 48 Level Denver Center
Fri 11:38:20 AM 39.6542 -104.6433 North 131 151 8,100 48 Climbing Denver Center
Fri 11:39:22 AM 39.6906 -104.6436 360° North 132 152 8,100 -242 Level Denver Center
Fri 11:40:24 AM 39.7303 -104.6428 North 133 153 7,600 -629 Descending Denver Center
Fri 11:41:26 AM 39.7619 -104.6439 358° North 117 135 6,800 -624 Descending Denver Center
Fri 11:42:29 AM 39.7933 -104.6411 North 108 124 6,300 -480 Descending Denver Center
Fri 11:43:31 AM 39.8233 -104.6417 359° North 109 125 5,800 -435 Descending Denver Center
Fri 11:44:33 AM 39.8522 -104.6417 360° North 110 127 5,400 -387 Descending Denver Center

Login

Don't have an account? Register now (free) for customized features, flight alerts, and more!